sensor_id;sensor_type;location;lat;lon;timestamp;temperature;humidity
52034;DHT22;38045;52.988;6.536;2022-07-06T00:01:54;14.30;99.90
52034;DHT22;38045;52.988;6.536;2022-07-06T00:04:20;14.30;99.90
52034;DHT22;38045;52.988;6.536;2022-07-06T00:06:45;14.30;99.90
52034;DHT22;38045;52.988;6.536;2022-07-06T00:09:11;14.30;99.90
52034;DHT22;38045;52.988;6.536;2022-07-06T00:11:37;14.30;99.90
52034;DHT22;38045;52.988;6.536;2022-07-06T00:14:03;14.20;99.90
52034;DHT22;38045;52.988;6.536;2022-07-06T00:16:29;14.20;99.90
52034;DHT22;38045;52.988;6.536;2022-07-06T00:18:55;14.20;99.90
52034;DHT22;38045;52.988;6.536;2022-07-06T00:21:21;14.20;99.90
52034;DHT22;38045;52.988;6.536;2022-07-06T00:23:46;14.10;99.90
52034;DHT22;38045;52.988;6.536;2022-07-06T00:26:12;14.10;99.90
52034;DHT22;38045;52.988;6.536;2022-07-06T00:28:38;14.00;99.90
52034;DHT22;38045;52.988;6.536;2022-07-06T00:31:03;14.00;99.90
52034;DHT22;38045;52.988;6.536;2022-07-06T00:33:31;14.00;99.90
52034;DHT22;38045;52.988;6.536;2022-07-06T00:35:56;14.00;99.90
52034;DHT22;38045;52.988;6.536;2022-07-06T00:38:22;14.00;99.90
52034;DHT22;38045;52.988;6.536;2022-07-06T00:40:48;14.00;99.90
52034;DHT22;38045;52.988;6.536;2022-07-06T00:43:14;14.00;99.90
52034;DHT22;38045;52.988;6.536;2022-07-06T00:45:39;14.00;99.90
52034;DHT22;38045;52.988;6.536;2022-07-06T00:48:05;13.90;99.90
52034;DHT22;38045;52.988;6.536;2022-07-06T00:50:31;13.90;99.90
52034;DHT22;38045;52.988;6.536;2022-07-06T00:53:00;13.80;99.90
52034;DHT22;38045;52.988;6.536;2022-07-06T00:55:28;13.90;99.90
52034;DHT22;38045;52.988;6.536;2022-07-06T00:57:55;13.90;99.90
52034;DHT22;38045;52.988;6.536;2022-07-06T01:00:22;13.90;99.90
52034;DHT22;38045;52.988;6.536;2022-07-06T01:02:50;13.90;99.90
52034;DHT22;38045;52.988;6.536;2022-07-06T01:05:17;13.90;99.90
52034;DHT22;38045;52.988;6.536;2022-07-06T01:07:44;13.90;99.90
52034;DHT22;38045;52.988;6.536;2022-07-06T01:10:13;13.90;99.90
52034;DHT22;38045;52.988;6.536;2022-07-06T01:12:41;13.90;99.90
52034;DHT22;38045;52.988;6.536;2022-07-06T01:15:08;13.80;99.90
52034;DHT22;38045;52.988;6.536;2022-07-06T01:17:34;13.90;99.90
52034;DHT22;38045;52.988;6.536;2022-07-06T01:22:45;13.80;99.90
52034;DHT22;38045;52.988;6.536;2022-07-06T01:25:11;13.90;99.90
52034;DHT22;38045;52.988;6.536;2022-07-06T01:27:39;13.90;99.90
52034;DHT22;38045;52.988;6.536;2022-07-06T01:30:10;13.80;99.90
52034;DHT22;38045;52.988;6.536;2022-07-06T01:32:36;13.90;99.90
52034;DHT22;38045;52.988;6.536;2022-07-06T01:35:03;13.90;99.90
52034;DHT22;38045;52.988;6.536;2022-07-06T01:37:30;13.90;99.90
52034;DHT22;38045;52.988;6.536;2022-07-06T01:40:03;13.90;99.90
52034;DHT22;38045;52.988;6.536;2022-07-06T01:42:29;13.90;99.90
52034;DHT22;38045;52.988;6.536;2022-07-06T01:44:54;14.00;99.90
52034;DHT22;38045;52.988;6.536;2022-07-06T01:47:20;14.00;99.90
52034;DHT22;38045;52.988;6.536;2022-07-06T01:49:46;14.00;99.90
52034;DHT22;38045;52.988;6.536;2022-07-06T01:52:11;14.00;99.90
52034;DHT22;38045;52.988;6.536;2022-07-06T01:54:37;13.90;99.90
52034;DHT22;38045;52.988;6.536;2022-07-06T01:57:03;13.90;99.90
52034;DHT22;38045;52.988;6.536;2022-07-06T01:59:29;13.90;99.90
52034;DHT22;38045;52.988;6.536;2022-07-06T02:01:54;13.90;99.90
52034;DHT22;38045;52.988;6.536;2022-07-06T02:04:20;13.90;99.90
52034;DHT22;38045;52.988;6.536;2022-07-06T02:06:45;13.90;99.90
52034;DHT22;38045;52.988;6.536;2022-07-06T02:09:11;13.90;99.90
52034;DHT22;38045;52.988;6.536;2022-07-06T02:11:37;13.80;99.90
52034;DHT22;38045;52.988;6.536;2022-07-06T02:14:02;13.80;99.90
52034;DHT22;38045;52.988;6.536;2022-07-06T02:16:28;13.80;99.90
52034;DHT22;38045;52.988;6.536;2022-07-06T02:18:53;13.80;99.90
52034;DHT22;38045;52.988;6.536;2022-07-06T02:21:19;13.80;99.90
52034;DHT22;38045;52.988;6.536;2022-07-06T02:23:45;13.80;99.90
52034;DHT22;38045;52.988;6.536;2022-07-06T02:26:10;13.80;99.90
52034;DHT22;38045;52.988;6.536;2022-07-06T02:28:36;13.80;99.90
52034;DHT22;38045;52.988;6.536;2022-07-06T02:31:01;13.80;99.90
52034;DHT22;38045;52.988;6.536;2022-07-06T02:33:27;13.80;99.90
52034;DHT22;38045;52.988;6.536;2022-07-06T02:35:52;13.80;99.90
52034;DHT22;38045;52.988;6.536;2022-07-06T02:38:18;13.80;99.90
52034;DHT22;38045;52.988;6.536;2022-07-06T02:40:44;13.80;99.90
52034;DHT22;38045;52.988;6.536;2022-07-06T02:43:09;13.80;99.90
52034;DHT22;38045;52.988;6.536;2022-07-06T02:45:35;13.90;99.90
52034;DHT22;38045;52.988;6.536;2022-07-06T02:48:01;13.90;99.90
52034;DHT22;38045;52.988;6.536;2022-07-06T02:50:27;13.90;99.90
52034;DHT22;38045;52.988;6.536;2022-07-06T02:52:52;13.90;99.90
52034;DHT22;38045;52.988;6.536;2022-07-06T02:55:18;13.90;99.90
52034;DHT22;38045;52.988;6.536;2022-07-06T02:57:44;13.90;99.90
52034;DHT22;38045;52.988;6.536;2022-07-06T03:00:10;13.90;99.90
52034;DHT22;38045;52.988;6.536;2022-07-06T03:02:36;13.90;99.90
52034;DHT22;38045;52.988;6.536;2022-07-06T03:05:02;13.90;99.90
52034;DHT22;38045;52.988;6.536;2022-07-06T03:07:28;13.80;99.90
52034;DHT22;38045;52.988;6.536;2022-07-06T03:09:53;13.80;99.90
52034;DHT22;38045;52.988;6.536;2022-07-06T03:12:19;13.80;99.90
52034;DHT22;38045;52.988;6.536;2022-07-06T03:14:44;13.80;99.90
52034;DHT22;38045;52.988;6.536;2022-07-06T03:17:10;13.80;99.90
52034;DHT22;38045;52.988;6.536;2022-07-06T03:19:36;13.80;99.90
52034;DHT22;38045;52.988;6.536;2022-07-06T03:22:02;13.80;99.90
52034;DHT22;38045;52.988;6.536;2022-07-06T03:24:28;13.80;99.90
52034;DHT22;38045;52.988;6.536;2022-07-06T03:26:53;13.80;99.90
52034;DHT22;38045;52.988;6.536;2022-07-06T03:29:19;13.80;99.90
52034;DHT22;38045;52.988;6.536;2022-07-06T03:31:46;13.80;99.90
52034;DHT22;38045;52.988;6.536;2022-07-06T03:34:11;13.80;99.90
52034;DHT22;38045;52.988;6.536;2022-07-06T03:36:37;13.80;99.90
52034;DHT22;38045;52.988;6.536;2022-07-06T03:39:03;13.80;99.90
52034;DHT22;38045;52.988;6.536;2022-07-06T03:41:29;13.80;99.90
52034;DHT22;38045;52.988;6.536;2022-07-06T03:43:54;13.80;99.90
52034;DHT22;38045;52.988;6.536;2022-07-06T03:46:20;13.80;99.90
52034;DHT22;38045;52.988;6.536;2022-07-06T03:48:45;13.70;99.90
52034;DHT22;38045;52.988;6.536;2022-07-06T03:51:11;13.80;99.90
52034;DHT22;38045;52.988;6.536;2022-07-06T03:53:37;13.70;99.90
52034;DHT22;38045;52.988;6.536;2022-07-06T03:56:03;13.80;99.90
52034;DHT22;38045;52.988;6.536;2022-07-06T03:58:47;13.70;99.90
52034;DHT22;38045;52.988;6.536;2022-07-06T04:01:12;13.80;99.90
52034;DHT22;38045;52.988;6.536;2022-07-06T04:03:38;13.80;99.90
52034;DHT22;38045;52.988;6.536;2022-07-06T04:06:04;13.80;99.90
52034;DHT22;38045;52.988;6.536;2022-07-06T04:08:30;13.80;99.90
52034;DHT22;38045;52.988;6.536;2022-07-06T04:10:56;13.80;99.90
52034;DHT22;38045;52.988;6.536;2022-07-06T04:13:21;13.90;99.90
52034;DHT22;38045;52.988;6.536;2022-07-06T04:15:47;13.90;99.90
52034;DHT22;38045;52.988;6.536;2022-07-06T04:18:12;13.80;99.90
52034;DHT22;38045;52.988;6.536;2022-07-06T04:20:38;13.80;99.90
52034;DHT22;38045;52.988;6.536;2022-07-06T04:23:04;13.90;99.90
52034;DHT22;38045;52.988;6.536;2022-07-06T04:25:30;13.90;99.90
52034;DHT22;38045;52.988;6.536;2022-07-06T04:27:55;13.90;99.90
52034;DHT22;38045;52.988;6.536;2022-07-06T04:30:21;13.90;99.90
52034;DHT22;38045;52.988;6.536;2022-07-06T04:32:46;13.90;99.90
52034;DHT22;38045;52.988;6.536;2022-07-06T04:35:12;13.90;99.90
52034;DHT22;38045;52.988;6.536;2022-07-06T04:37:38;14.00;99.90
52034;DHT22;38045;52.988;6.536;2022-07-06T04:40:04;14.00;99.90
52034;DHT22;38045;52.988;6.536;2022-07-06T04:42:29;14.10;99.90
52034;DHT22;38045;52.988;6.536;2022-07-06T04:44:55;14.20;99.90
52034;DHT22;38045;52.988;6.536;2022-07-06T04:47:21;14.20;99.90
52034;DHT22;38045;52.988;6.536;2022-07-06T04:49:46;14.30;99.90
52034;DHT22;38045;52.988;6.536;2022-07-06T04:52:12;14.40;99.90
52034;DHT22;38045;52.988;6.536;2022-07-06T04:54:38;14.40;99.90
52034;DHT22;38045;52.988;6.536;2022-07-06T04:57:04;14.40;99.90
52034;DHT22;38045;52.988;6.536;2022-07-06T04:59:29;14.40;99.90
52034;DHT22;38045;52.988;6.536;2022-07-06T05:01:55;14.40;99.90
52034;DHT22;38045;52.988;6.536;2022-07-06T05:04:20;14.40;99.90
52034;DHT22;38045;52.988;6.536;2022-07-06T05:06:47;14.30;99.90
52034;DHT22;38045;52.988;6.536;2022-07-06T05:09:13;14.30;99.90
52034;DHT22;38045;52.988;6.536;2022-07-06T05:11:39;14.30;99.90
52034;DHT22;38045;52.988;6.536;2022-07-06T05:14:05;14.20;99.90
52034;DHT22;38045;52.988;6.536;2022-07-06T05:16:31;14.20;99.90
52034;DHT22;38045;52.988;6.536;2022-07-06T05:18:57;14.20;99.90
52034;DHT22;38045;52.988;6.536;2022-07-06T05:21:23;14.20;99.90
52034;DHT22;38045;52.988;6.536;2022-07-06T05:23:48;14.20;99.90
52034;DHT22;38045;52.988;6.536;2022-07-06T05:26:14;14.20;99.90
52034;DHT22;38045;52.988;6.536;2022-07-06T05:28:39;14.20;99.90
52034;DHT22;38045;52.988;6.536;2022-07-06T05:31:05;14.20;99.90
52034;DHT22;38045;52.988;6.536;2022-07-06T05:33:31;14.30;99.90
52034;DHT22;38045;52.988;6.536;2022-07-06T05:35:57;14.30;99.90
52034;DHT22;38045;52.988;6.536;2022-07-06T05:38:22;14.30;99.90
52034;DHT22;38045;52.988;6.536;2022-07-06T05:40:48;14.40;99.90
52034;DHT22;38045;52.988;6.536;2022-07-06T05:43:13;14.40;99.90
52034;DHT22;38045;52.988;6.536;2022-07-06T05:45:39;14.40;99.90
52034;DHT22;38045;52.988;6.536;2022-07-06T05:48:05;14.50;99.90
52034;DHT22;38045;52.988;6.536;2022-07-06T05:50:49;14.60;99.90
52034;DHT22;38045;52.988;6.536;2022-07-06T05:53:14;14.70;99.90
52034;DHT22;38045;52.988;6.536;2022-07-06T05:55:40;14.70;99.90
52034;DHT22;38045;52.988;6.536;2022-07-06T05:58:05;14.70;99.90
52034;DHT22;38045;52.988;6.536;2022-07-06T06:00:31;14.70;99.90
52034;DHT22;38045;52.988;6.536;2022-07-06T06:02:58;14.80;99.90
52034;DHT22;38045;52.988;6.536;2022-07-06T06:05:24;14.80;99.90
52034;DHT22;38045;52.988;6.536;2022-07-06T06:07:49;14.80;99.90
52034;DHT22;38045;52.988;6.536;2022-07-06T06:10:18;14.80;99.90
52034;DHT22;38045;52.988;6.536;2022-07-06T06:12:44;14.80;99.90
52034;DHT22;38045;52.988;6.536;2022-07-06T06:15:11;14.70;99.90
52034;DHT22;38045;52.988;6.536;2022-07-06T06:17:37;14.70;99.90
52034;DHT22;38045;52.988;6.536;2022-07-06T06:20:04;14.70;99.90
52034;DHT22;38045;52.988;6.536;2022-07-06T06:22:32;14.70;99.90
52034;DHT22;38045;52.988;6.536;2022-07-06T06:25:08;14.70;99.90
52034;DHT22;38045;52.988;6.536;2022-07-06T06:27:34;14.80;99.90
52034;DHT22;38045;52.988;6.536;2022-07-06T06:29:59;14.80;99.90
52034;DHT22;38045;52.988;6.536;2022-07-06T06:32:25;14.80;99.90
52034;DHT22;38045;52.988;6.536;2022-07-06T06:34:50;14.90;99.90
52034;DHT22;38045;52.988;6.536;2022-07-06T06:37:16;15.10;99.90
52034;DHT22;38045;52.988;6.536;2022-07-06T06:39:41;15.10;99.90
52034;DHT22;38045;52.988;6.536;2022-07-06T06:42:07;15.20;99.90
52034;DHT22;38045;52.988;6.536;2022-07-06T06:44:33;15.20;99.90
52034;DHT22;38045;52.988;6.536;2022-07-06T06:46:58;15.20;99.90
52034;DHT22;38045;52.988;6.536;2022-07-06T06:49:24;15.30;99.90
52034;DHT22;38045;52.988;6.536;2022-07-06T06:51:50;15.30;99.90
52034;DHT22;38045;52.988;6.536;2022-07-06T06:54:15;15.30;99.90
52034;DHT22;38045;52.988;6.536;2022-07-06T06:56:41;15.40;99.90
52034;DHT22;38045;52.988;6.536;2022-07-06T06:59:06;15.40;99.90
52034;DHT22;38045;52.988;6.536;2022-07-06T07:01:32;15.40;99.90
52034;DHT22;38045;52.988;6.536;2022-07-06T07:03:58;15.40;99.90
52034;DHT22;38045;52.988;6.536;2022-07-06T07:06:24;15.40;99.90
52034;DHT22;38045;52.988;6.536;2022-07-06T07:08:49;15.40;99.90
52034;DHT22;38045;52.988;6.536;2022-07-06T07:11:15;15.40;99.90
52034;DHT22;38045;52.988;6.536;2022-07-06T07:13:41;15.40;99.90
52034;DHT22;38045;52.988;6.536;2022-07-06T07:16:06;15.50;99.90
52034;DHT22;38045;52.988;6.536;2022-07-06T07:18:32;15.60;99.90
52034;DHT22;38045;52.988;6.536;2022-07-06T07:20:58;15.70;99.90
52034;DHT22;38045;52.988;6.536;2022-07-06T07:23:23;15.90;99.90
52034;DHT22;38045;52.988;6.536;2022-07-06T07:25:49;16.00;99.90
52034;DHT22;38045;52.988;6.536;2022-07-06T07:28:14;16.20;99.90
52034;DHT22;38045;52.988;6.536;2022-07-06T07:30:40;16.30;99.90
52034;DHT22;38045;52.988;6.536;2022-07-06T07:33:06;16.40;99.90
52034;DHT22;38045;52.988;6.536;2022-07-06T07:35:31;16.50;99.90
52034;DHT22;38045;52.988;6.536;2022-07-06T07:37:57;16.60;99.90
52034;DHT22;38045;52.988;6.536;2022-07-06T07:40:24;16.60;99.90
52034;DHT22;38045;52.988;6.536;2022-07-06T07:42:50;16.90;99.90
52034;DHT22;38045;52.988;6.536;2022-07-06T07:45:16;17.00;99.90
52034;DHT22;38045;52.988;6.536;2022-07-06T07:47:41;17.00;99.90
52034;DHT22;38045;52.988;6.536;2022-07-06T07:50:08;16.90;99.90
52034;DHT22;38045;52.988;6.536;2022-07-06T07:52:34;16.70;99.90
52034;DHT22;38045;52.988;6.536;2022-07-06T07:54:59;16.60;99.90
52034;DHT22;38045;52.988;6.536;2022-07-06T07:57:25;16.50;99.90
52034;DHT22;38045;52.988;6.536;2022-07-06T07:59:50;16.40;99.90
52034;DHT22;38045;52.988;6.536;2022-07-06T08:02:16;16.40;99.90
52034;DHT22;38045;52.988;6.536;2022-07-06T08:04:42;16.40;99.90
52034;DHT22;38045;52.988;6.536;2022-07-06T08:07:07;16.40;99.90
52034;DHT22;38045;52.988;6.536;2022-07-06T08:09:33;16.40;99.90
52034;DHT22;38045;52.988;6.536;2022-07-06T08:11:59;16.40;99.90
52034;DHT22;38045;52.988;6.536;2022-07-06T08:14:25;16.50;99.90
52034;DHT22;38045;52.988;6.536;2022-07-06T08:16:51;16.60;99.90
52034;DHT22;38045;52.988;6.536;2022-07-06T08:19:17;16.70;99.90
52034;DHT22;38045;52.988;6.536;2022-07-06T08:21:43;16.80;99.90
52034;DHT22;38045;52.988;6.536;2022-07-06T08:24:09;16.80;99.90
52034;DHT22;38045;52.988;6.536;2022-07-06T08:26:35;16.90;99.90
52034;DHT22;38045;52.988;6.536;2022-07-06T08:29:00;17.00;99.90
52034;DHT22;38045;52.988;6.536;2022-07-06T08:31:26;17.10;99.90
52034;DHT22;38045;52.988;6.536;2022-07-06T08:33:55;17.20;99.90
52034;DHT22;38045;52.988;6.536;2022-07-06T08:36:22;17.20;99.90
52034;DHT22;38045;52.988;6.536;2022-07-06T08:38:49;17.00;99.90
52034;DHT22;38045;52.988;6.536;2022-07-06T08:41:15;17.00;99.90
52034;DHT22;38045;52.988;6.536;2022-07-06T08:43:41;17.10;99.90
52034;DHT22;38045;52.988;6.536;2022-07-06T08:46:08;17.30;99.90
52034;DHT22;38045;52.988;6.536;2022-07-06T08:48:37;17.40;99.90
52034;DHT22;38045;52.988;6.536;2022-07-06T08:51:05;17.60;99.90
52034;DHT22;38045;52.988;6.536;2022-07-06T08:53:30;17.70;99.90
52034;DHT22;38045;52.988;6.536;2022-07-06T08:55:56;17.70;99.90
52034;DHT22;38045;52.988;6.536;2022-07-06T08:58:25;17.80;99.90
52034;DHT22;38045;52.988;6.536;2022-07-06T09:00:55;17.90;99.90
52034;DHT22;38045;52.988;6.536;2022-07-06T09:03:20;18.10;99.90
52034;DHT22;38045;52.988;6.536;2022-07-06T09:05:46;18.40;99.90
52034;DHT22;38045;52.988;6.536;2022-07-06T09:08:12;18.60;99.90
52034;DHT22;38045;52.988;6.536;2022-07-06T09:10:38;18.80;99.90
52034;DHT22;38045;52.988;6.536;2022-07-06T09:13:07;18.90;99.90
52034;DHT22;38045;52.988;6.536;2022-07-06T09:15:34;18.90;99.90
52034;DHT22;38045;52.988;6.536;2022-07-06T09:18:01;18.90;99.90
52034;DHT22;38045;52.988;6.536;2022-07-06T09:20:28;18.90;99.90
52034;DHT22;38045;52.988;6.536;2022-07-06T09:22:59;18.90;99.90
52034;DHT22;38045;52.988;6.536;2022-07-06T09:25:26;18.80;99.90
52034;DHT22;38045;52.988;6.536;2022-07-06T09:27:52;18.70;99.90
52034;DHT22;38045;52.988;6.536;2022-07-06T09:30:21;18.80;99.90
52034;DHT22;38045;52.988;6.536;2022-07-06T09:32:49;19.00;99.90
52034;DHT22;38045;52.988;6.536;2022-07-06T09:35:31;19.00;99.90
52034;DHT22;38045;52.988;6.536;2022-07-06T09:38:14;18.90;99.90
52034;DHT22;38045;52.988;6.536;2022-07-06T09:40:44;19.00;99.90
52034;DHT22;38045;52.988;6.536;2022-07-06T09:43:11;19.30;99.90
52034;DHT22;38045;52.988;6.536;2022-07-06T09:45:39;19.50;99.90
52034;DHT22;38045;52.988;6.536;2022-07-06T09:48:16;19.50;99.90
52034;DHT22;38045;52.988;6.536;2022-07-06T09:50:49;19.50;99.90
52034;DHT22;38045;52.988;6.536;2022-07-06T09:53:20;19.30;99.90
52034;DHT22;38045;52.988;6.536;2022-07-06T09:55:47;19.20;99.90
52034;DHT22;38045;52.988;6.536;2022-07-06T09:58:14;19.20;99.90
52034;DHT22;38045;52.988;6.536;2022-07-06T10:00:41;19.20;99.90
52034;DHT22;38045;52.988;6.536;2022-07-06T10:03:07;19.20;99.90
52034;DHT22;38045;52.988;6.536;2022-07-06T10:05:39;19.30;99.90
52034;DHT22;38045;52.988;6.536;2022-07-06T10:08:07;19.20;99.90
52034;DHT22;38045;52.988;6.536;2022-07-06T10:10:35;19.10;99.90
52034;DHT22;38045;52.988;6.536;2022-07-06T10:13:02;19.10;99.90
52034;DHT22;38045;52.988;6.536;2022-07-06T10:15:29;19.00;99.90
52034;DHT22;38045;52.988;6.536;2022-07-06T10:18:03;19.00;99.90
52034;DHT22;38045;52.988;6.536;2022-07-06T10:20:31;19.10;99.90
52034;DHT22;38045;52.988;6.536;2022-07-06T10:23:00;19.40;99.90
52034;DHT22;38045;52.988;6.536;2022-07-06T10:25:27;19.50;99.90
52034;DHT22;38045;52.988;6.536;2022-07-06T10:27:53;19.40;99.90
52034;DHT22;38045;52.988;6.536;2022-07-06T10:30:19;19.20;99.90
52034;DHT22;38045;52.988;6.536;2022-07-06T10:32:47;19.00;99.90
52034;DHT22;38045;52.988;6.536;2022-07-06T10:35:14;18.90;99.90
52034;DHT22;38045;52.988;6.536;2022-07-06T10:37:40;18.70;99.90
52034;DHT22;38045;52.988;6.536;2022-07-06T10:40:07;18.40;99.90
52034;DHT22;38045;52.988;6.536;2022-07-06T10:42:58;18.40;99.90
52034;DHT22;38045;52.988;6.536;2022-07-06T10:50:55;19.10;99.90
52034;DHT22;38045;52.988;6.536;2022-07-06T10:53:24;19.60;99.90
52034;DHT22;38045;52.988;6.536;2022-07-06T10:55:52;19.70;99.90
52034;DHT22;38045;52.988;6.536;2022-07-06T10:58:50;19.70;99.90
52034;DHT22;38045;52.988;6.536;2022-07-06T11:01:18;19.60;99.90
52034;DHT22;38045;52.988;6.536;2022-07-06T11:03:46;19.50;99.90
52034;DHT22;38045;52.988;6.536;2022-07-06T11:06:20;19.50;99.90
52034;DHT22;38045;52.988;6.536;2022-07-06T11:14:15;19.70;99.90
52034;DHT22;38045;52.988;6.536;2022-07-06T11:19:13;19.60;99.90
52034;DHT22;38045;52.988;6.536;2022-07-06T11:21:50;19.50;99.90
52034;DHT22;38045;52.988;6.536;2022-07-06T11:24:24;19.50;99.90
52034;DHT22;38045;52.988;6.536;2022-07-06T11:26:51;19.40;99.90
52034;DHT22;38045;52.988;6.536;2022-07-06T11:29:19;19.30;99.90
52034;DHT22;38045;52.988;6.536;2022-07-06T11:31:56;19.40;99.90
52034;DHT22;38045;52.988;6.536;2022-07-06T11:34:30;19.70;99.90
52034;DHT22;38045;52.988;6.536;2022-07-06T11:39:22;20.30;99.90
52034;DHT22;38045;52.988;6.536;2022-07-06T11:41:51;20.00;99.90
52034;DHT22;38045;52.988;6.536;2022-07-06T11:44:16;19.80;99.90
52034;DHT22;38045;52.988;6.536;2022-07-06T11:46:42;19.60;99.90
52034;DHT22;38045;52.988;6.536;2022-07-06T11:49:09;19.40;99.90
52034;DHT22;38045;52.988;6.536;2022-07-06T11:51:39;19.40;99.90
52034;DHT22;38045;52.988;6.536;2022-07-06T11:56:45;19.90;99.90
52034;DHT22;38045;52.988;6.536;2022-07-06T11:59:11;20.50;99.90
52034;DHT22;38045;52.988;6.536;2022-07-06T12:01:37;20.90;99.90
52034;DHT22;38045;52.988;6.536;2022-07-06T12:04:07;21.10;99.90
52034;DHT22;38045;52.988;6.536;2022-07-06T12:06:33;21.20;98.30
52034;DHT22;38045;52.988;6.536;2022-07-06T12:09:00;21.30;99.40
52034;DHT22;38045;52.988;6.536;2022-07-06T12:11:32;21.60;99.90
52034;DHT22;38045;52.988;6.536;2022-07-06T12:14:00;21.70;99.90
52034;DHT22;38045;52.988;6.536;2022-07-06T12:16:31;21.50;99.40
52034;DHT22;38045;52.988;6.536;2022-07-06T12:18:58;21.20;98.50
52034;DHT22;38045;52.988;6.536;2022-07-06T12:21:24;21.00;98.80
52034;DHT22;38045;52.988;6.536;2022-07-06T12:23:52;21.00;98.80
52034;DHT22;38045;52.988;6.536;2022-07-06T12:26:20;20.90;97.90
52034;DHT22;38045;52.988;6.536;2022-07-06T12:28:53;20.70;97.90
52034;DHT22;38045;52.988;6.536;2022-07-06T12:31:38;20.50;97.90
52034;DHT22;38045;52.988;6.536;2022-07-06T12:34:05;20.30;97.80
52034;DHT22;38045;52.988;6.536;2022-07-06T12:36:31;20.10;98.40
52034;DHT22;38045;52.988;6.536;2022-07-06T12:39:11;20.20;99.00
52034;DHT22;38045;52.988;6.536;2022-07-06T12:41:37;20.30;99.20
52034;DHT22;38045;52.988;6.536;2022-07-06T12:44:05;20.50;98.80
52034;DHT22;38045;52.988;6.536;2022-07-06T12:46:39;20.80;99.00
52034;DHT22;38045;52.988;6.536;2022-07-06T12:54:18;21.30;97.40
52034;DHT22;38045;52.988;6.536;2022-07-06T12:57:06;21.20;97.20
52034;DHT22;38045;52.988;6.536;2022-07-06T12:59:38;21.20;97.80
52034;DHT22;38045;52.988;6.536;2022-07-06T13:02:09;21.20;98.10
52034;DHT22;38045;52.988;6.536;2022-07-06T13:04:36;21.10;97.10
52034;DHT22;38045;52.988;6.536;2022-07-06T13:07:02;20.90;97.30
52034;DHT22;38045;52.988;6.536;2022-07-06T13:09:29;20.70;97.40
52034;DHT22;38045;52.988;6.536;2022-07-06T13:11:55;20.50;97.70
52034;DHT22;38045;52.988;6.536;2022-07-06T13:14:21;20.30;97.90
52034;DHT22;38045;52.988;6.536;2022-07-06T13:16:47;20.20;97.80
52034;DHT22;38045;52.988;6.536;2022-07-06T13:19:14;20.00;98.10
52034;DHT22;38045;52.988;6.536;2022-07-06T13:21:39;20.00;98.90
52034;DHT22;38045;52.988;6.536;2022-07-06T13:24:06;19.90;98.90
52034;DHT22;38045;52.988;6.536;2022-07-06T13:26:32;19.90;98.90
52034;DHT22;38045;52.988;6.536;2022-07-06T13:29:00;19.90;98.90
52034;DHT22;38045;52.988;6.536;2022-07-06T13:31:26;19.80;98.90
52034;DHT22;38045;52.988;6.536;2022-07-06T13:33:53;19.70;99.00
52034;DHT22;38045;52.988;6.536;2022-07-06T13:36:18;19.70;99.20
52034;DHT22;38045;52.988;6.536;2022-07-06T13:38:44;19.70;99.00
52034;DHT22;38045;52.988;6.536;2022-07-06T13:41:10;19.70;99.10
52034;DHT22;38045;52.988;6.536;2022-07-06T13:43:35;19.60;99.20
52034;DHT22;38045;52.988;6.536;2022-07-06T13:46:05;19.70;99.00
52034;DHT22;38045;52.988;6.536;2022-07-06T13:48:32;19.60;99.00
52034;DHT22;38045;52.988;6.536;2022-07-06T13:50:58;19.50;98.90
52034;DHT22;38045;52.988;6.536;2022-07-06T13:53:24;19.50;99.00
52034;DHT22;38045;52.988;6.536;2022-07-06T13:55:49;19.50;99.20
52034;DHT22;38045;52.988;6.536;2022-07-06T13:58:15;19.50;99.20
52034;DHT22;38045;52.988;6.536;2022-07-06T14:00:41;19.50;98.80
52034;DHT22;38045;52.988;6.536;2022-07-06T14:03:06;19.60;99.00
52034;DHT22;38045;52.988;6.536;2022-07-06T14:05:32;19.50;98.40
52034;DHT22;38045;52.988;6.536;2022-07-06T14:07:58;19.40;98.80
52034;DHT22;38045;52.988;6.536;2022-07-06T14:10:23;19.40;98.70
52034;DHT22;38045;52.988;6.536;2022-07-06T14:12:49;19.30;99.10
52034;DHT22;38045;52.988;6.536;2022-07-06T14:15:15;19.30;99.40
52034;DHT22;38045;52.988;6.536;2022-07-06T14:17:40;19.20;99.60
52034;DHT22;38045;52.988;6.536;2022-07-06T14:20:07;19.20;99.70
52034;DHT22;38045;52.988;6.536;2022-07-06T14:22:32;19.30;99.90
52034;DHT22;38045;52.988;6.536;2022-07-06T14:24:58;19.20;99.90
52034;DHT22;38045;52.988;6.536;2022-07-06T14:27:24;19.10;99.90
52034;DHT22;38045;52.988;6.536;2022-07-06T14:29:50;19.10;99.80
52034;DHT22;38045;52.988;6.536;2022-07-06T14:32:15;19.10;99.90
52034;DHT22;38045;52.988;6.536;2022-07-06T14:34:41;18.90;99.90
52034;DHT22;38045;52.988;6.536;2022-07-06T14:37:07;18.90;99.90
52034;DHT22;38045;52.988;6.536;2022-07-06T14:39:32;18.90;99.90
52034;DHT22;38045;52.988;6.536;2022-07-06T14:41:58;18.80;99.90
52034;DHT22;38045;52.988;6.536;2022-07-06T14:44:23;18.80;99.90
52034;DHT22;38045;52.988;6.536;2022-07-06T14:46:49;18.90;99.90
52034;DHT22;38045;52.988;6.536;2022-07-06T14:49:14;18.90;99.90
52034;DHT22;38045;52.988;6.536;2022-07-06T14:51:40;18.90;99.90
52034;DHT22;38045;52.988;6.536;2022-07-06T14:54:05;18.90;99.90
52034;DHT22;38045;52.988;6.536;2022-07-06T14:56:31;19.00;99.90
52034;DHT22;38045;52.988;6.536;2022-07-06T14:58:57;19.00;99.90
52034;DHT22;38045;52.988;6.536;2022-07-06T15:01:22;19.10;99.90
52034;DHT22;38045;52.988;6.536;2022-07-06T15:03:48;19.10;99.90
52034;DHT22;38045;52.988;6.536;2022-07-06T15:06:13;19.20;99.90
52034;DHT22;38045;52.988;6.536;2022-07-06T15:08:39;19.20;99.90
52034;DHT22;38045;52.988;6.536;2022-07-06T15:11:04;19.10;99.90
52034;DHT22;38045;52.988;6.536;2022-07-06T15:13:30;19.00;99.90
52034;DHT22;38045;52.988;6.536;2022-07-06T15:15:56;19.00;99.90
52034;DHT22;38045;52.988;6.536;2022-07-06T15:18:21;18.80;99.90
52034;DHT22;38045;52.988;6.536;2022-07-06T15:20:47;18.60;99.90
52034;DHT22;38045;52.988;6.536;2022-07-06T15:23:12;18.50;99.90
52034;DHT22;38045;52.988;6.536;2022-07-06T15:25:38;18.40;99.90
52034;DHT22;38045;52.988;6.536;2022-07-06T15:28:04;18.40;99.90
52034;DHT22;38045;52.988;6.536;2022-07-06T15:30:29;18.30;99.90
52034;DHT22;38045;52.988;6.536;2022-07-06T15:32:58;18.30;99.90
52034;DHT22;38045;52.988;6.536;2022-07-06T15:35:24;18.20;99.90
52034;DHT22;38045;52.988;6.536;2022-07-06T15:37:49;18.10;99.90
52034;DHT22;38045;52.988;6.536;2022-07-06T15:40:15;18.10;99.90
52034;DHT22;38045;52.988;6.536;2022-07-06T15:42:46;18.10;99.90
52034;DHT22;38045;52.988;6.536;2022-07-06T15:45:12;18.10;99.90
52034;DHT22;38045;52.988;6.536;2022-07-06T15:47:39;18.20;99.90
52034;DHT22;38045;52.988;6.536;2022-07-06T15:50:05;18.20;99.90
52034;DHT22;38045;52.988;6.536;2022-07-06T15:52:31;18.10;99.90
52034;DHT22;38045;52.988;6.536;2022-07-06T15:54:56;18.10;99.90